sensor_id;sensor_type;location;lat;lon;timestamp;P1;durP1;ratioP1;P2;durP2;ratioP2
70547;SDS011;58099;43.406;3.698;2023-01-15T00:01:32;11.32;;;4.93;;
70547;SDS011;58099;43.406;3.698;2023-01-15T00:03:59;11.65;;;5.30;;
70547;SDS011;58099;43.406;3.698;2023-01-15T00:06:27;10.47;;;5.00;;
70547;SDS011;58099;43.406;3.698;2023-01-15T00:08:54;11.27;;;4.68;;
70547;SDS011;58099;43.406;3.698;2023-01-15T00:11:20;10.55;;;4.47;;
70547;SDS011;58099;43.406;3.698;2023-01-15T00:13:47;12.23;;;5.03;;
70547;SDS011;58099;43.406;3.698;2023-01-15T00:16:14;14.23;;;4.68;;
70547;SDS011;58099;43.406;3.698;2023-01-15T00:18:40;10.80;;;4.47;;
70547;SDS011;58099;43.406;3.698;2023-01-15T00:21:07;13.68;;;4.80;;
70547;SDS011;58099;43.406;3.698;2023-01-15T00:23:34;10.95;;;4.38;;
70547;SDS011;58099;43.406;3.698;2023-01-15T00:26:20;12.93;;;4.60;;
70547;SDS011;58099;43.406;3.698;2023-01-15T00:29:05;11.43;;;4.13;;
70547;SDS011;58099;43.406;3.698;2023-01-15T00:31:31;13.50;;;4.50;;
70547;SDS011;58099;43.406;3.698;2023-01-15T00:33:59;11.15;;;4.05;;
70547;SDS011;58099;43.406;3.698;2023-01-15T00:36:25;9.55;;;3.70;;
70547;SDS011;58099;43.406;3.698;2023-01-15T00:38:51;10.45;;;3.67;;
70547;SDS011;58099;43.406;3.698;2023-01-15T00:41:17;10.57;;;3.85;;
70547;SDS011;58099;43.406;3.698;2023-01-15T00:43:43;10.27;;;4.10;;
70547;SDS011;58099;43.406;3.698;2023-01-15T00:46:09;8.95;;;3.80;;
70547;SDS011;58099;43.406;3.698;2023-01-15T00:48:35;10.32;;;3.88;;
70547;SDS011;58099;43.406;3.698;2023-01-15T00:51:02;10.32;;;4.03;;
70547;SDS011;58099;43.406;3.698;2023-01-15T00:53:29;8.95;;;3.90;;
70547;SDS011;58099;43.406;3.698;2023-01-15T00:55:55;10.10;;;3.40;;
70547;SDS011;58099;43.406;3.698;2023-01-15T00:58:21;9.32;;;3.85;;
70547;SDS011;58099;43.406;3.698;2023-01-15T01:00:56;12.27;;;4.40;;
70547;SDS011;58099;43.406;3.698;2023-01-15T01:03:23;12.65;;;4.50;;
70547;SDS011;58099;43.406;3.698;2023-01-15T01:05:49;11.70;;;4.22;;
70547;SDS011;58099;43.406;3.698;2023-01-15T01:08:16;10.13;;;4.43;;
70547;SDS011;58099;43.406;3.698;2023-01-15T01:10:42;10.43;;;4.32;;
70547;SDS011;58099;43.406;3.698;2023-01-15T07:47:08;13.20;;;5.13;;
70547;SDS011;58099;43.406;3.698;2023-01-15T07:49:57;9.63;;;4.63;;
70547;SDS011;58099;43.406;3.698;2023-01-15T07:52:24;11.65;;;4.65;;
70547;SDS011;58099;43.406;3.698;2023-01-15T07:54:50;12.23;;;4.90;;
70547;SDS011;58099;43.406;3.698;2023-01-15T07:57:17;9.70;;;4.60;;
70547;SDS011;58099;43.406;3.698;2023-01-15T07:59:44;10.70;;;4.72;;
70547;SDS011;58099;43.406;3.698;2023-01-15T08:02:10;11.57;;;5.60;;
70547;SDS011;58099;43.406;3.698;2023-01-15T08:04:37;12.38;;;5.15;;
70547;SDS011;58099;43.406;3.698;2023-01-15T08:07:03;11.88;;;5.68;;
70547;SDS011;58099;43.406;3.698;2023-01-15T08:09:29;11.70;;;5.07;;
70547;SDS011;58099;43.406;3.698;2023-01-15T08:11:59;10.88;;;5.15;;
70547;SDS011;58099;43.406;3.698;2023-01-15T08:14:44;12.45;;;5.45;;
70547;SDS011;58099;43.406;3.698;2023-01-15T08:17:29;12.60;;;5.43;;
70547;SDS011;58099;43.406;3.698;2023-01-15T08:19:55;13.57;;;6.10;;
70547;SDS011;58099;43.406;3.698;2023-01-15T08:22:22;13.67;;;5.53;;
70547;SDS011;58099;43.406;3.698;2023-01-15T08:24:48;11.98;;;5.45;;
70547;SDS011;58099;43.406;3.698;2023-01-15T08:27:14;10.32;;;5.93;;
70547;SDS011;58099;43.406;3.698;2023-01-15T08:29:40;9.95;;;4.43;;
70547;SDS011;58099;43.406;3.698;2023-01-15T08:32:06;9.30;;;4.47;;
70547;SDS011;58099;43.406;3.698;2023-01-15T08:34:32;10.40;;;4.30;;
70547;SDS011;58099;43.406;3.698;2023-01-15T08:36:59;12.70;;;5.20;;
70547;SDS011;58099;43.406;3.698;2023-01-15T08:39:25;10.48;;;5.15;;
70547;SDS011;58099;43.406;3.698;2023-01-15T08:41:52;10.10;;;5.22;;
70547;SDS011;58099;43.406;3.698;2023-01-15T08:44:19;10.80;;;5.28;;
70547;SDS011;58099;43.406;3.698;2023-01-15T08:46:49;8.97;;;5.37;;
70547;SDS011;58099;43.406;3.698;2023-01-15T08:49:16;9.60;;;5.07;;
70547;SDS011;58099;43.406;3.698;2023-01-15T08:51:45;10.07;;;5.00;;
70547;SDS011;58099;43.406;3.698;2023-01-15T08:54:15;11.55;;;4.43;;
70547;SDS011;58099;43.406;3.698;2023-01-15T08:56:41;11.15;;;4.80;;
70547;SDS011;58099;43.406;3.698;2023-01-15T08:59:07;10.53;;;4.73;;
70547;SDS011;58099;43.406;3.698;2023-01-15T09:01:34;10.85;;;5.32;;
70547;SDS011;58099;43.406;3.698;2023-01-15T09:04:00;11.77;;;5.20;;
70547;SDS011;58099;43.406;3.698;2023-01-15T09:06:26;12.35;;;5.95;;
70547;SDS011;58099;43.406;3.698;2023-01-15T09:08:52;9.70;;;5.20;;
70547;SDS011;58099;43.406;3.698;2023-01-15T09:11:18;12.00;;;5.30;;
70547;SDS011;58099;43.406;3.698;2023-01-15T09:13:45;12.40;;;5.25;;
70547;SDS011;58099;43.406;3.698;2023-01-15T09:16:12;11.65;;;5.63;;
70547;SDS011;58099;43.406;3.698;2023-01-15T09:18:38;11.38;;;5.53;;
70547;SDS011;58099;43.406;3.698;2023-01-15T09:21:05;11.30;;;5.90;;
70547;SDS011;58099;43.406;3.698;2023-01-15T09:23:31;11.80;;;6.50;;
70547;SDS011;58099;43.406;3.698;2023-01-15T09:25:59;11.10;;;5.65;;
70547;SDS011;58099;43.406;3.698;2023-01-15T09:28:26;11.20;;;5.68;;
70547;SDS011;58099;43.406;3.698;2023-01-15T09:30:52;8.65;;;4.95;;
70547;SDS011;58099;43.406;3.698;2023-01-15T09:33:19;10.32;;;4.57;;
70547;SDS011;58099;43.406;3.698;2023-01-15T09:35:45;9.33;;;4.47;;
70547;SDS011;58099;43.406;3.698;2023-01-15T09:38:14;13.05;;;5.07;;
70547;SDS011;58099;43.406;3.698;2023-01-15T09:45:58;11.80;;;5.60;;
70547;SDS011;58099;43.406;3.698;2023-01-15T09:48:29;12.00;;;5.33;;
70547;SDS011;58099;43.406;3.698;2023-01-15T09:51:02;12.00;;;5.65;;
70547;SDS011;58099;43.406;3.698;2023-01-15T09:53:35;11.52;;;5.95;;
70547;SDS011;58099;43.406;3.698;2023-01-15T09:56:03;12.20;;;5.90;;
70547;SDS011;58099;43.406;3.698;2023-01-15T09:58:36;12.20;;;5.90;;
70547;SDS011;58099;43.406;3.698;2023-01-15T10:01:03;11.27;;;5.33;;
70547;SDS011;58099;43.406;3.698;2023-01-15T10:03:32;13.88;;;5.80;;
70547;SDS011;58099;43.406;3.698;2023-01-15T10:08:46;13.57;;;6.55;;
70547;SDS011;58099;43.406;3.698;2023-01-15T10:16:18;10.95;;;5.80;;
70547;SDS011;58099;43.406;3.698;2023-01-15T10:18:45;11.75;;;6.28;;
70547;SDS011;58099;43.406;3.698;2023-01-15T10:28:49;10.98;;;5.40;;
70547;SDS011;58099;43.406;3.698;2023-01-15T10:31:18;10.55;;;4.25;;
70547;SDS011;58099;43.406;3.698;2023-01-15T10:38:48;11.02;;;3.50;;
70547;SDS011;58099;43.406;3.698;2023-01-15T10:43:55;6.68;;;2.45;;
70547;SDS011;58099;43.406;3.698;2023-01-15T10:46:24;6.05;;;1.77;;
70547;SDS011;58099;43.406;3.698;2023-01-15T10:48:55;5.27;;;1.33;;
70547;SDS011;58099;43.406;3.698;2023-01-15T10:51:36;3.17;;;0.40;;
70547;SDS011;58099;43.406;3.698;2023-01-15T10:54:06;2.40;;;0.45;;
70547;SDS011;58099;43.406;3.698;2023-01-15T10:56:42;2.05;;;0.30;;
70547;SDS011;58099;43.406;3.698;2023-01-15T10:59:20;2.10;;;0.30;;
70547;SDS011;58099;43.406;3.698;2023-01-15T11:01:53;2.30;;;0.40;;
70547;SDS011;58099;43.406;3.698;2023-01-15T11:04:20;2.47;;;0.40;;
70547;SDS011;58099;43.406;3.698;2023-01-15T11:06:46;2.80;;;0.20;;
70547;SDS011;58099;43.406;3.698;2023-01-15T11:09:22;1.70;;;0.22;;
70547;SDS011;58099;43.406;3.698;2023-01-15T11:11:56;2.13;;;0.40;;
70547;SDS011;58099;43.406;3.698;2023-01-15T11:14:43;3.37;;;0.30;;
70547;SDS011;58099;43.406;3.698;2023-01-15T11:17:29;2.92;;;0.30;;
70547;SDS011;58099;43.406;3.698;2023-01-15T11:20:21;2.70;;;0.30;;
70547;SDS011;58099;43.406;3.698;2023-01-15T11:22:49;1.50;;;0.20;;
70547;SDS011;58099;43.406;3.698;2023-01-15T11:25:23;2.00;;;0.30;;
70547;SDS011;58099;43.406;3.698;2023-01-15T11:27:49;2.13;;;0.30;;
70547;SDS011;58099;43.406;3.698;2023-01-15T11:30:29;3.50;;;0.40;;
70547;SDS011;58099;43.406;3.698;2023-01-15T11:32:56;2.42;;;0.28;;
70547;SDS011;58099;43.406;3.698;2023-01-15T11:35:23;2.13;;;0.30;;
70547;SDS011;58099;43.406;3.698;2023-01-15T11:37:49;2.15;;;0.30;;
70547;SDS011;58099;43.406;3.698;2023-01-15T11:40:19;1.50;;;0.20;;
70547;SDS011;58099;43.406;3.698;2023-01-15T11:42:47;1.77;;;0.30;;
70547;SDS011;58099;43.406;3.698;2023-01-15T11:45:32;2.33;;;0.30;;
70547;SDS011;58099;43.406;3.698;2023-01-15T11:51:05;2.03;;;0.30;;
70547;SDS011;58099;43.406;3.698;2023-01-15T11:53:33;1.83;;;0.33;;
70547;SDS011;58099;43.406;3.698;2023-01-15T11:56:00;2.55;;;0.38;;
70547;SDS011;58099;43.406;3.698;2023-01-15T11:58:30;2.35;;;0.30;;
70547;SDS011;58099;43.406;3.698;2023-01-15T12:00:57;3.72;;;0.40;;
70547;SDS011;58099;43.406;3.698;2023-01-15T12:03:28;2.25;;;0.30;;
70547;SDS011;58099;43.406;3.698;2023-01-15T12:05:57;1.50;;;0.20;;
70547;SDS011;58099;43.406;3.698;2023-01-15T12:16:17;1.88;;;0.30;;
70547;SDS011;58099;43.406;3.698;2023-01-15T12:19:06;2.27;;;0.30;;
70547;SDS011;58099;43.406;3.698;2023-01-15T12:21:45;1.95;;;0.30;;
70547;SDS011;58099;43.406;3.698;2023-01-15T12:24:18;2.30;;;0.38;;
70547;SDS011;58099;43.406;3.698;2023-01-15T12:29:33;2.05;;;0.30;;
70547;SDS011;58099;43.406;3.698;2023-01-15T12:32:04;2.30;;;0.30;;
70547;SDS011;58099;43.406;3.698;2023-01-15T12:34:38;2.13;;;0.20;;
70547;SDS011;58099;43.406;3.698;2023-01-15T12:37:19;1.42;;;0.20;;
70547;SDS011;58099;43.406;3.698;2023-01-15T12:42:19;2.85;;;0.50;;
70547;SDS011;58099;43.406;3.698;2023-01-15T12:45:11;2.43;;;0.33;;
70547;SDS011;58099;43.406;3.698;2023-01-15T12:47:41;2.65;;;0.20;;
70547;SDS011;58099;43.406;3.698;2023-01-15T12:52:44;2.50;;;0.63;;
70547;SDS011;58099;43.406;3.698;2023-01-15T12:55:21;2.30;;;0.60;;
70547;SDS011;58099;43.406;3.698;2023-01-15T12:57:49;2.13;;;0.20;;
70547;SDS011;58099;43.406;3.698;2023-01-15T13:00:22;2.35;;;0.30;;
70547;SDS011;58099;43.406;3.698;2023-01-15T13:07:57;2.33;;;0.30;;
70547;SDS011;58099;43.406;3.698;2023-01-15T13:10:28;2.40;;;0.53;;
70547;SDS011;58099;43.406;3.698;2023-01-15T13:13:01;2.40;;;0.60;;
70547;SDS011;58099;43.406;3.698;2023-01-15T13:15:33;2.20;;;0.40;;
70547;SDS011;58099;43.406;3.698;2023-01-15T13:18:46;3.13;;;0.40;;
70547;SDS011;58099;43.406;3.698;2023-01-15T13:20:51;2.50;;;0.50;;
70547;SDS011;58099;43.406;3.698;2023-01-15T13:31:30;2.88;;;0.30;;
70547;SDS011;58099;43.406;3.698;2023-01-15T13:34:06;2.92;;;0.40;;
70547;SDS011;58099;43.406;3.698;2023-01-15T13:36:39;1.87;;;0.23;;
70547;SDS011;58099;43.406;3.698;2023-01-15T13:39:06;2.25;;;0.35;;
70547;SDS011;58099;43.406;3.698;2023-01-15T13:41:35;2.72;;;0.30;;
70547;SDS011;58099;43.406;3.698;2023-01-15T13:44:21;1.77;;;0.20;;
70547;SDS011;58099;43.406;3.698;2023-01-15T13:46:57;2.20;;;0.30;;
70547;SDS011;58099;43.406;3.698;2023-01-15T13:49:26;2.17;;;0.30;;
70547;SDS011;58099;43.406;3.698;2023-01-15T13:51:54;2.10;;;0.30;;
70547;SDS011;58099;43.406;3.698;2023-01-15T13:54:22;2.22;;;0.30;;
70547;SDS011;58099;43.406;3.698;2023-01-15T13:56:50;2.97;;;0.40;;
70547;SDS011;58099;43.406;3.698;2023-01-15T14:02:01;2.60;;;0.40;;
70547;SDS011;58099;43.406;3.698;2023-01-15T14:04:34;2.58;;;0.43;;
70547;SDS011;58099;43.406;3.698;2023-01-15T14:07:01;4.20;;;0.50;;
70547;SDS011;58099;43.406;3.698;2023-01-15T14:09:28;3.63;;;0.40;;
70547;SDS011;58099;43.406;3.698;2023-01-15T14:11:58;2.20;;;0.30;;
70547;SDS011;58099;43.406;3.698;2023-01-15T14:33:06;3.42;;;0.40;;
70547;SDS011;58099;43.406;3.698;2023-01-15T14:35:34;4.88;;;1.10;;
70547;SDS011;58099;43.406;3.698;2023-01-15T14:38:04;4.22;;;1.00;;
70547;SDS011;58099;43.406;3.698;2023-01-15T14:40:32;2.97;;;0.40;;
70547;SDS011;58099;43.406;3.698;2023-01-15T14:43:05;2.38;;;0.47;;
70547;SDS011;58099;43.406;3.698;2023-01-15T14:48:01;3.08;;;0.60;;
70547;SDS011;58099;43.406;3.698;2023-01-15T14:53:05;3.07;;;0.70;;
70547;SDS011;58099;43.406;3.698;2023-01-15T15:00:43;2.72;;;0.40;;
70547;SDS011;58099;43.406;3.698;2023-01-15T15:03:18;1.75;;;0.20;;
70547;SDS011;58099;43.406;3.698;2023-01-15T15:05:45;1.97;;;0.30;;
70547;SDS011;58099;43.406;3.698;2023-01-15T15:08:12;2.10;;;0.30;;
70547;SDS011;58099;43.406;3.698;2023-01-15T15:10:40;3.30;;;0.43;;
70547;SDS011;58099;43.406;3.698;2023-01-15T15:16:10;2.47;;;0.60;;
70547;SDS011;58099;43.406;3.698;2023-01-15T15:18:39;2.73;;;0.70;;
70547;SDS011;58099;43.406;3.698;2023-01-15T15:21:16;1.40;;;0.30;;
70547;SDS011;58099;43.406;3.698;2023-01-15T15:23:54;2.45;;;0.30;;
70547;SDS011;58099;43.406;3.698;2023-01-15T15:26:24;3.15;;;0.40;;
70547;SDS011;58099;43.406;3.698;2023-01-15T15:28:54;3.63;;;0.60;;
70547;SDS011;58099;43.406;3.698;2023-01-15T15:31:21;4.10;;;0.40;;
70547;SDS011;58099;43.406;3.698;2023-01-15T15:33:50;3.50;;;0.68;;
70547;SDS011;58099;43.406;3.698;2023-01-15T15:36:18;2.30;;;0.35;;
70547;SDS011;58099;43.406;3.698;2023-01-15T15:38:55;2.67;;;0.40;;
70547;SDS011;58099;43.406;3.698;2023-01-15T15:41:23;2.78;;;0.32;;
70547;SDS011;58099;43.406;3.698;2023-01-15T15:44:14;2.60;;;0.40;;
70547;SDS011;58099;43.406;3.698;2023-01-15T15:47:15;2.83;;;0.60;;
70547;SDS011;58099;43.406;3.698;2023-01-15T15:50:00;3.60;;;0.50;;
70547;SDS011;58099;43.406;3.698;2023-01-15T15:52:26;2.95;;;0.57;;
70547;SDS011;58099;43.406;3.698;2023-01-15T15:54:57;4.78;;;0.50;;
70547;SDS011;58099;43.406;3.698;2023-01-15T15:57:24;4.03;;;0.50;;
70547;SDS011;58099;43.406;3.698;2023-01-15T15:59:52;3.75;;;0.40;;
70547;SDS011;58099;43.406;3.698;2023-01-15T16:04:45;2.90;;;0.35;;
70547;SDS011;58099;43.406;3.698;2023-01-15T16:07:12;3.28;;;0.77;;
70547;SDS011;58099;43.406;3.698;2023-01-15T16:09:38;4.00;;;1.20;;
70547;SDS011;58099;43.406;3.698;2023-01-15T16:12:06;3.60;;;0.70;;
70547;SDS011;58099;43.406;3.698;2023-01-15T16:14:33;3.15;;;0.80;;
70547;SDS011;58099;43.406;3.698;2023-01-15T16:17:01;3.47;;;0.60;;
70547;SDS011;58099;43.406;3.698;2023-01-15T16:19:27;3.55;;;0.80;;
70547;SDS011;58099;43.406;3.698;2023-01-15T16:21:53;5.33;;;1.27;;
70547;SDS011;58099;43.406;3.698;2023-01-15T16:24:21;4.20;;;0.88;;
70547;SDS011;58099;43.406;3.698;2023-01-15T16:27:12;4.18;;;0.77;;
70547;SDS011;58099;43.406;3.698;2023-01-15T16:29:38;5.78;;;0.82;;
70547;SDS011;58099;43.406;3.698;2023-01-15T16:32:08;6.85;;;1.48;;
70547;SDS011;58099;43.406;3.698;2023-01-15T16:34:35;7.60;;;2.00;;
70547;SDS011;58099;43.406;3.698;2023-01-15T16:37:01;4.90;;;0.93;;
70547;SDS011;58099;43.406;3.698;2023-01-15T16:39:28;7.65;;;2.88;;
70547;SDS011;58099;43.406;3.698;2023-01-15T16:41:56;4.63;;;0.95;;
70547;SDS011;58099;43.406;3.698;2023-01-15T16:46:58;5.67;;;0.63;;
70547;SDS011;58099;43.406;3.698;2023-01-15T16:49:26;7.40;;;0.88;;
70547;SDS011;58099;43.406;3.698;2023-01-15T16:51:53;4.70;;;0.80;;
70547;SDS011;58099;43.406;3.698;2023-01-15T16:57:03;5.68;;;0.70;;
70547;SDS011;58099;43.406;3.698;2023-01-15T17:02:02;5.70;;;0.90;;
70547;SDS011;58099;43.406;3.698;2023-01-15T17:04:33;5.03;;;1.52;;
70547;SDS011;58099;43.406;3.698;2023-01-15T17:09:26;4.78;;;1.20;;
70547;SDS011;58099;43.406;3.698;2023-01-15T17:11:52;4.67;;;0.90;;
70547;SDS011;58099;43.406;3.698;2023-01-15T17:16:48;5.25;;;1.00;;
70547;SDS011;58099;43.406;3.698;2023-01-15T17:19:34;4.75;;;1.02;;
70547;SDS011;58099;43.406;3.698;2023-01-15T17:22:00;6.30;;;1.20;;
70547;SDS011;58099;43.406;3.698;2023-01-15T17:24:26;4.73;;;0.70;;
70547;SDS011;58099;43.406;3.698;2023-01-15T17:26:52;6.07;;;0.85;;
70547;SDS011;58099;43.406;3.698;2023-01-15T17:29:18;4.43;;;0.70;;
70547;SDS011;58099;43.406;3.698;2023-01-15T17:31:44;4.93;;;0.60;;
70547;SDS011;58099;43.406;3.698;2023-01-15T17:34:11;4.82;;;0.77;;
70547;SDS011;58099;43.406;3.698;2023-01-15T17:36:37;4.67;;;0.70;;
70547;SDS011;58099;43.406;3.698;2023-01-15T17:39:03;3.40;;;0.50;;
70547;SDS011;58099;43.406;3.698;2023-01-15T17:41:29;5.32;;;1.10;;
70547;SDS011;58099;43.406;3.698;2023-01-15T17:43:55;5.97;;;1.10;;
70547;SDS011;58099;43.406;3.698;2023-01-15T17:46:21;5.38;;;0.77;;
70547;SDS011;58099;43.406;3.698;2023-01-15T17:48:48;6.03;;;0.80;;
70547;SDS011;58099;43.406;3.698;2023-01-15T17:51:14;5.90;;;1.23;;
70547;SDS011;58099;43.406;3.698;2023-01-15T17:53:40;5.05;;;0.90;;
70547;SDS011;58099;43.406;3.698;2023-01-15T17:56:07;4.55;;;0.77;;
70547;SDS011;58099;43.406;3.698;2023-01-15T17:58:52;6.75;;;0.80;;
70547;SDS011;58099;43.406;3.698;2023-01-15T18:01:41;4.50;;;0.67;;
70547;SDS011;58099;43.406;3.698;2023-01-15T18:04:28;5.90;;;1.10;;
70547;SDS011;58099;43.406;3.698;2023-01-15T18:07:14;7.65;;;1.02;;
70547;SDS011;58099;43.406;3.698;2023-01-15T18:09:40;4.03;;;0.65;;
70547;SDS011;58099;43.406;3.698;2023-01-15T18:12:07;3.95;;;0.45;;
70547;SDS011;58099;43.406;3.698;2023-01-15T18:14:33;5.87;;;1.23;;
70547;SDS011;58099;43.406;3.698;2023-01-15T18:17:00;3.80;;;0.50;;
70547;SDS011;58099;43.406;3.698;2023-01-15T18:19:26;5.57;;;0.90;;
70547;SDS011;58099;43.406;3.698;2023-01-15T18:21:53;5.30;;;0.70;;
70547;SDS011;58099;43.406;3.698;2023-01-15T18:24:19;3.03;;;0.40;;
70547;SDS011;58099;43.406;3.698;2023-01-15T18:26:46;6.53;;;0.70;;
70547;SDS011;58099;43.406;3.698;2023-01-15T18:29:12;8.40;;;0.90;;
70547;SDS011;58099;43.406;3.698;2023-01-15T18:31:38;4.80;;;0.50;;
70547;SDS011;58099;43.406;3.698;2023-01-15T18:34:05;4.22;;;0.57;;
70547;SDS011;58099;43.406;3.698;2023-01-15T18:36:31;4.85;;;1.33;;
70547;SDS011;58099;43.406;3.698;2023-01-15T18:38:57;5.43;;;1.00;;
70547;SDS011;58099;43.406;3.698;2023-01-15T18:41:30;4.78;;;0.60;;
70547;SDS011;58099;43.406;3.698;2023-01-15T18:44:20;5.53;;;0.90;;
70547;SDS011;58099;43.406;3.698;2023-01-15T18:47:14;6.07;;;0.82;;
70547;SDS011;58099;43.406;3.698;2023-01-15T18:49:41;5.82;;;1.00;;
70547;SDS011;58099;43.406;3.698;2023-01-15T18:52:08;5.10;;;1.00;;
70547;SDS011;58099;43.406;3.698;2023-01-15T18:54:53;4.63;;;1.30;;
70547;SDS011;58099;43.406;3.698;2023-01-15T18:57:19;5.15;;;1.30;;
70547;SDS011;58099;43.406;3.698;2023-01-15T18:59:45;3.97;;;0.95;;
70547;SDS011;58099;43.406;3.698;2023-01-15T19:02:12;5.97;;;0.73;;
70547;SDS011;58099;43.406;3.698;2023-01-15T19:04:39;5.40;;;1.60;;
70547;SDS011;58099;43.406;3.698;2023-01-15T19:07:05;6.03;;;1.00;;
70547;SDS011;58099;43.406;3.698;2023-01-15T19:09:31;4.10;;;0.60;;
70547;SDS011;58099;43.406;3.698;2023-01-15T19:11:58;3.97;;;0.50;;
70547;SDS011;58099;43.406;3.698;2023-01-15T19:14:24;4.10;;;0.70;;
70547;SDS011;58099;43.406;3.698;2023-01-15T19:17:11;3.80;;;0.73;;
70547;SDS011;58099;43.406;3.698;2023-01-15T19:19:56;7.05;;;1.10;;
70547;SDS011;58099;43.406;3.698;2023-01-15T19:22:22;3.25;;;0.60;;
70547;SDS011;58099;43.406;3.698;2023-01-15T19:25:07;5.95;;;1.20;;
70547;SDS011;58099;43.406;3.698;2023-01-15T19:27:33;4.75;;;1.20;;
70547;SDS011;58099;43.406;3.698;2023-01-15T19:29:59;7.73;;;1.30;;
70547;SDS011;58099;43.406;3.698;2023-01-15T19:32:26;4.82;;;1.30;;
70547;SDS011;58099;43.406;3.698;2023-01-15T19:34:52;7.05;;;1.48;;
70547;SDS011;58099;43.406;3.698;2023-01-15T19:37:18;6.07;;;1.60;;
70547;SDS011;58099;43.406;3.698;2023-01-15T19:39:44;8.93;;;2.47;;
70547;SDS011;58099;43.406;3.698;2023-01-15T19:42:11;6.63;;;1.63;;
70547;SDS011;58099;43.406;3.698;2023-01-15T19:44:56;6.53;;;1.52;;
70547;SDS011;58099;43.406;3.698;2023-01-15T19:47:41;7.20;;;1.63;;
70547;SDS011;58099;43.406;3.698;2023-01-15T19:50:30;7.13;;;1.80;;
70547;SDS011;58099;43.406;3.698;2023-01-15T19:52:57;7.50;;;1.90;;
70547;SDS011;58099;43.406;3.698;2023-01-15T19:55:23;7.57;;;1.30;;
70547;SDS011;58099;43.406;3.698;2023-01-15T19:57:57;4.95;;;0.93;;
70547;SDS011;58099;43.406;3.698;2023-01-15T20:00:23;8.32;;;1.35;;
70547;SDS011;58099;43.406;3.698;2023-01-15T20:02:49;8.63;;;1.58;;
70547;SDS011;58099;43.406;3.698;2023-01-15T20:05:16;4.97;;;1.20;;
70547;SDS011;58099;43.406;3.698;2023-01-15T20:07:42;6.97;;;1.70;;
70547;SDS011;58099;43.406;3.698;2023-01-15T20:10:09;4.75;;;1.55;;
70547;SDS011;58099;43.406;3.698;2023-01-15T20:12:36;5.97;;;1.27;;
70547;SDS011;58099;43.406;3.698;2023-01-15T20:15:20;5.97;;;1.30;;
70547;SDS011;58099;43.406;3.698;2023-01-15T20:17:46;5.38;;;1.50;;
70547;SDS011;58099;43.406;3.698;2023-01-15T20:20:12;4.90;;;1.63;;
70547;SDS011;58099;43.406;3.698;2023-01-15T20:22:39;8.15;;;1.90;;
70547;SDS011;58099;43.406;3.698;2023-01-15T20:25:05;5.07;;;1.92;;
70547;SDS011;58099;43.406;3.698;2023-01-15T20:27:32;6.10;;;1.40;;
70547;SDS011;58099;43.406;3.698;2023-01-15T20:30:04;6.57;;;1.40;;
70547;SDS011;58099;43.406;3.698;2023-01-15T20:32:33;5.00;;;1.47;;
70547;SDS011;58099;43.406;3.698;2023-01-15T20:34:59;5.72;;;2.05;;
70547;SDS011;58099;43.406;3.698;2023-01-15T20:37:25;6.47;;;1.77;;
70547;SDS011;58099;43.406;3.698;2023-01-15T20:39:51;7.63;;;1.60;;
70547;SDS011;58099;43.406;3.698;2023-01-15T20:42:17;5.57;;;1.50;;
70547;SDS011;58099;43.406;3.698;2023-01-15T20:45:02;6.10;;;1.53;;
70547;SDS011;58099;43.406;3.698;2023-01-15T20:47:34;6.50;;;0.73;;
70547;SDS011;58099;43.406;3.698;2023-01-15T20:50:19;4.82;;;0.80;;
70547;SDS011;58099;43.406;3.698;2023-01-15T20:52:46;6.72;;;1.40;;
70547;SDS011;58099;43.406;3.698;2023-01-15T20:55:13;5.72;;;1.20;;
70547;SDS011;58099;43.406;3.698;2023-01-15T20:57:39;4.30;;;0.80;;
70547;SDS011;58099;43.406;3.698;2023-01-15T21:00:07;6.57;;;1.00;;
70547;SDS011;58099;43.406;3.698;2023-01-15T21:02:35;6.13;;;1.73;;
70547;SDS011;58099;43.406;3.698;2023-01-15T21:05:01;4.85;;;1.30;;
70547;SDS011;58099;43.406;3.698;2023-01-15T21:07:27;4.22;;;1.17;;
70547;SDS011;58099;43.406;3.698;2023-01-15T21:09:53;6.30;;;1.13;;
70547;SDS011;58099;43.406;3.698;2023-01-15T21:12:19;6.32;;;1.70;;
70547;SDS011;58099;43.406;3.698;2023-01-15T21:14:45;6.88;;;1.60;;
70547;SDS011;58099;43.406;3.698;2023-01-15T21:17:11;7.30;;;1.95;;
70547;SDS011;58099;43.406;3.698;2023-01-15T21:19:37;5.50;;;1.20;;
70547;SDS011;58099;43.406;3.698;2023-01-15T21:22:03;6.23;;;1.20;;
70547;SDS011;58099;43.406;3.698;2023-01-15T21:24:29;4.72;;;0.90;;
70547;SDS011;58099;43.406;3.698;2023-01-15T21:26:55;5.90;;;1.00;;
70547;SDS011;58099;43.406;3.698;2023-01-15T21:29:21;6.65;;;1.00;;
70547;SDS011;58099;43.406;3.698;2023-01-15T21:31:48;4.45;;;0.90;;
70547;SDS011;58099;43.406;3.698;2023-01-15T21:34:15;7.10;;;1.37;;
70547;SDS011;58099;43.406;3.698;2023-01-15T21:36:41;5.75;;;1.20;;
70547;SDS011;58099;43.406;3.698;2023-01-15T21:39:09;6.65;;;0.90;;
70547;SDS011;58099;43.406;3.698;2023-01-15T21:41:35;5.50;;;0.80;;
70547;SDS011;58099;43.406;3.698;2023-01-15T21:44:20;5.55;;;0.80;;
70547;SDS011;58099;43.406;3.698;2023-01-15T21:47:07;6.77;;;1.03;;
70547;SDS011;58099;43.406;3.698;2023-01-15T21:49:33;7.95;;;1.60;;
70547;SDS011;58099;43.406;3.698;2023-01-15T21:52:00;9.63;;;1.80;;
70547;SDS011;58099;43.406;3.698;2023-01-15T21:54:26;8.73;;;1.40;;
70547;SDS011;58099;43.406;3.698;2023-01-15T21:56:52;6.15;;;1.40;;
70547;SDS011;58099;43.406;3.698;2023-01-15T21:59:19;7.20;;;1.47;;
70547;SDS011;58099;43.406;3.698;2023-01-15T22:01:45;8.68;;;1.50;;
70547;SDS011;58099;43.406;3.698;2023-01-15T22:04:11;9.40;;;1.77;;
70547;SDS011;58099;43.406;3.698;2023-01-15T22:06:37;6.55;;;1.38;;
70547;SDS011;58099;43.406;3.698;2023-01-15T22:09:03;8.07;;;1.83;;
70547;SDS011;58099;43.406;3.698;2023-01-15T22:11:29;8.00;;;1.50;;
70547;SDS011;58099;43.406;3.698;2023-01-15T22:16:37;6.15;;;1.08;;
70547;SDS011;58099;43.406;3.698;2023-01-15T22:19:03;7.10;;;1.10;;
70547;SDS011;58099;43.406;3.698;2023-01-15T22:21:29;6.70;;;1.00;;
70547;SDS011;58099;43.406;3.698;2023-01-15T22:23:55;8.13;;;1.10;;
70547;SDS011;58099;43.406;3.698;2023-01-15T22:26:21;6.13;;;0.65;;
70547;SDS011;58099;43.406;3.698;2023-01-15T22:28:49;5.15;;;0.68;;
70547;SDS011;58099;43.406;3.698;2023-01-15T22:31:16;6.20;;;1.35;;
70547;SDS011;58099;43.406;3.698;2023-01-15T22:33:43;6.35;;;1.10;;
70547;SDS011;58099;43.406;3.698;2023-01-15T22:36:09;4.87;;;0.70;;
70547;SDS011;58099;43.406;3.698;2023-01-15T22:38:38;8.85;;;0.98;;
70547;SDS011;58099;43.406;3.698;2023-01-15T22:41:04;8.45;;;1.02;;
70547;SDS011;58099;43.406;3.698;2023-01-15T22:43:31;4.65;;;0.60;;
70547;SDS011;58099;43.406;3.698;2023-01-15T22:46:06;5.30;;;0.75;;
70547;SDS011;58099;43.406;3.698;2023-01-15T22:48:32;5.10;;;0.97;;
70547;SDS011;58099;43.406;3.698;2023-01-15T22:50:58;9.07;;;1.20;;
70547;SDS011;58099;43.406;3.698;2023-01-15T22:53:24;5.18;;;0.75;;
70547;SDS011;58099;43.406;3.698;2023-01-15T22:55:53;4.55;;;0.70;;
70547;SDS011;58099;43.406;3.698;2023-01-15T22:58:19;6.10;;;0.80;;
70547;SDS011;58099;43.406;3.698;2023-01-15T23:00:46;5.53;;;0.80;;
70547;SDS011;58099;43.406;3.698;2023-01-15T23:03:12;6.05;;;1.08;;
70547;SDS011;58099;43.406;3.698;2023-01-15T23:05:38;4.97;;;0.80;;
70547;SDS011;58099;43.406;3.698;2023-01-15T23:08:05;5.55;;;0.90;;
70547;SDS011;58099;43.406;3.698;2023-01-15T23:10:31;6.88;;;1.15;;
70547;SDS011;58099;43.406;3.698;2023-01-15T23:12:57;6.60;;;0.70;;
70547;SDS011;58099;43.406;3.698;2023-01-15T23:15:23;5.30;;;1.02;;
70547;SDS011;58099;43.406;3.698;2023-01-15T23:17:49;5.38;;;1.08;;
70547;SDS011;58099;43.406;3.698;2023-01-15T23:20:15;4.53;;;0.70;;
70547;SDS011;58099;43.406;3.698;2023-01-15T23:22:41;4.93;;;0.70;;
70547;SDS011;58099;43.406;3.698;2023-01-15T23:25:08;4.63;;;0.70;;
70547;SDS011;58099;43.406;3.698;2023-01-15T23:27:34;5.28;;;1.00;;